createdAt,value
2019-06-27T00:00:18.153Z,97.00
2019-06-27T00:02:45.121Z,97.10
2019-06-27T00:05:12.204Z,97.15
2019-06-27T00:07:39.180Z,97.60
2019-06-27T00:10:07.958Z,97.89
2019-06-27T00:12:34.955Z,97.97
2019-06-27T00:15:01.954Z,98.03
2019-06-27T00:17:28.925Z,98.08
2019-06-27T00:19:55.911Z,98.02
2019-06-27T00:22:22.934Z,98.24
2019-06-27T00:24:49.875Z,98.56
2019-06-27T00:27:16.828Z,98.76
2019-06-27T00:29:45.136Z,99.35
2019-06-27T00:32:12.154Z,99.27
2019-06-27T00:34:40.396Z,99.31
2019-06-27T00:37:07.361Z,99.70
2019-06-27T00:39:34.345Z,100.00
2019-06-27T00:42:01.313Z,100.00
2019-06-27T00:44:30.086Z,100.00
2019-06-27T00:46:57.082Z,100.00
2019-06-27T00:49:25.692Z,100.00
2019-06-27T00:51:52.675Z,100.00
2019-06-27T00:54:19.658Z,100.00
2019-06-27T00:56:46.614Z,100.00
2019-06-27T00:59:13.593Z,100.00
2019-06-27T01:01:40.582Z,100.00
2019-06-27T01:04:07.619Z,100.00
2019-06-27T01:06:34.659Z,100.00
2019-06-27T01:09:01.633Z,100.00
2019-06-27T01:11:28.929Z,100.00
2019-06-27T01:13:55.919Z,100.00
2019-06-27T01:16:23.094Z,100.00
2019-06-27T01:18:50.052Z,100.00
2019-06-27T01:21:16.991Z,100.00
2019-06-27T01:23:45.159Z,100.00
2019-06-27T01:26:12.370Z,100.00
2019-06-27T01:28:39.410Z,100.00
2019-06-27T01:31:06.514Z,100.00
2019-06-27T01:33:33.598Z,100.00
2019-06-27T01:36:00.571Z,100.00
2019-06-27T01:38:27.647Z,100.00
2019-06-27T01:40:54.612Z,100.00
2019-06-27T01:43:21.589Z,100.00
2019-06-27T01:45:52.415Z,100.00
2019-06-27T01:48:19.399Z,100.00
2019-06-27T01:50:46.382Z,100.00
2019-06-27T01:53:13.424Z,100.00
2019-06-27T01:55:40.385Z,100.00
2019-06-27T01:58:07.451Z,100.00
2019-06-27T02:00:34.404Z,100.00
2019-06-27T02:03:01.365Z,100.00
2019-06-27T02:05:28.369Z,100.00
2019-06-27T02:07:55.356Z,100.00
2019-06-27T02:10:22.325Z,100.00
2019-06-27T02:12:49.294Z,100.00
2019-06-27T02:15:22.085Z,100.00
2019-06-27T02:17:48.180Z,100.00
2019-06-27T02:20:16.072Z,100.00
2019-06-27T02:22:43.037Z,100.00
2019-06-27T02:25:10.305Z,100.00
2019-06-27T02:27:37.253Z,100.00
2019-06-27T02:30:07.227Z,100.00
2019-06-27T02:32:35.100Z,100.00
2019-06-27T02:35:02.561Z,100.00
2019-06-27T02:37:29.534Z,100.00
2019-06-27T02:39:56.515Z,100.00
2019-06-27T02:42:23.450Z,100.00
2019-06-27T02:44:50.406Z,100.00
2019-06-27T02:47:17.433Z,100.00
2019-06-27T02:49:44.382Z,100.00
2019-06-27T02:52:11.334Z,100.00
2019-06-27T02:54:38.321Z,100.00
2019-06-27T02:57:05.283Z,100.00
2019-06-27T02:59:32.254Z,100.00
2019-06-27T03:01:59.338Z,100.00
2019-06-27T03:04:26.317Z,100.00
2019-06-27T03:06:53.321Z,100.00
2019-06-27T03:09:22.107Z,100.00
2019-06-27T03:11:49.118Z,100.00
2019-06-27T03:14:16.110Z,100.00
2019-06-27T03:16:44.622Z,100.00
2019-06-27T03:19:11.585Z,100.00
2019-06-27T03:21:38.586Z,100.00
2019-06-27T03:24:05.551Z,100.00
2019-06-27T03:26:32.622Z,100.00
2019-06-27T03:28:59.611Z,100.00
2019-06-27T03:31:26.606Z,100.00
2019-06-27T03:33:53.589Z,100.00
2019-06-27T03:36:22.488Z,100.00
2019-06-27T03:38:49.706Z,100.00
2019-06-27T03:41:16.696Z,100.00
2019-06-27T03:43:43.658Z,100.00
2019-06-27T03:46:10.687Z,100.00
2019-06-27T03:48:37.693Z,100.00
2019-06-27T03:51:04.663Z,100.00
2019-06-27T03:53:32.389Z,100.00
2019-06-27T03:55:59.380Z,100.00
2019-06-27T03:58:32.126Z,100.00
2019-06-27T04:00:59.111Z,100.00
2019-06-27T04:03:26.094Z,100.00
2019-06-27T04:05:53.076Z,100.00
2019-06-27T04:08:20.054Z,100.00
2019-06-27T04:10:47.015Z,100.00
2019-06-27T04:13:13.964Z,100.00
2019-06-27T04:15:42.090Z,100.00
2019-06-27T04:18:09.060Z,100.00
2019-06-27T04:20:36.166Z,100.00
2019-06-27T04:23:03.241Z,99.98
2019-06-27T04:25:30.187Z,99.21
2019-06-27T04:28:00.050Z,99.41
2019-06-27T04:30:26.080Z,99.15
2019-06-27T04:32:54.164Z,99.20
2019-06-27T04:35:21.142Z,98.59
2019-06-27T04:37:48.162Z,98.57
2019-06-27T04:40:16.911Z,98.45
2019-06-27T04:42:43.883Z,98.48
2019-06-27T04:45:10.888Z,98.36
2019-06-27T04:47:37.904Z,98.35
2019-06-27T04:50:05.365Z,98.32
2019-06-27T04:52:32.431Z,98.24
2019-06-27T04:55:03.046Z,97.95
2019-06-27T04:57:28.607Z,97.86
2019-06-27T04:59:55.583Z,97.49
2019-06-27T05:02:22.549Z,97.35
2019-06-27T05:04:49.595Z,97.75
2019-06-27T05:07:17.018Z,97.65
2019-06-27T05:09:43.997Z,96.90
2019-06-27T05:12:10.970Z,96.21
2019-06-27T05:14:38.017Z,96.20
2019-06-27T05:17:05.270Z,95.89
2019-06-27T05:19:32.244Z,96.02
2019-06-27T05:21:59.376Z,95.49
2019-06-27T05:24:26.349Z,94.65
2019-06-27T05:26:53.337Z,94.65
2019-06-27T05:29:20.363Z,94.65
2019-06-27T05:31:47.369Z,94.47
2019-06-27T05:34:15.385Z,94.33
2019-06-27T05:36:42.393Z,93.56
2019-06-27T05:39:10.277Z,92.98
2019-06-27T05:41:37.309Z,92.37
2019-06-27T05:44:04.275Z,91.97
2019-06-27T05:46:31.267Z,91.49
2019-06-27T05:48:58.899Z,91.20
2019-06-27T05:51:25.922Z,91.19
2019-06-27T05:53:52.902Z,91.70
2019-06-27T05:56:20.263Z,91.21
2019-06-27T05:58:47.302Z,91.30
2019-06-27T06:01:14.408Z,91.14
2019-06-27T06:03:41.880Z,91.44
2019-06-27T06:06:08.882Z,90.90
2019-06-27T06:08:35.850Z,90.83
2019-06-27T06:11:03.042Z,90.66
2019-06-27T06:13:31.696Z,90.29
2019-06-27T06:16:00.966Z,90.19
2019-06-27T06:18:27.613Z,90.17
2019-06-27T06:20:54.606Z,90.27
2019-06-27T06:23:21.589Z,89.87
2019-06-27T06:25:48.631Z,89.80
2019-06-27T06:28:17.645Z,89.68
2019-06-27T06:30:45.363Z,89.61
2019-06-27T06:33:12.680Z,89.27
2019-06-27T06:35:39.648Z,88.92
2019-06-27T06:38:06.632Z,88.50
2019-06-27T06:40:33.671Z,89.12
2019-06-27T06:43:00.897Z,89.76
2019-06-27T06:45:27.859Z,91.17
2019-06-27T06:47:54.834Z,92.04
2019-06-27T06:50:23.497Z,93.11
2019-06-27T06:52:50.729Z,93.88
2019-06-27T06:55:17.778Z,93.45
2019-06-27T06:57:44.803Z,93.34
2019-06-27T07:00:12.321Z,93.52
2019-06-27T07:02:39.346Z,92.62
2019-06-27T07:05:06.625Z,92.59
2019-06-27T07:07:33.631Z,91.84
2019-06-27T07:10:00.753Z,91.37
2019-06-27T07:12:27.725Z,90.63
2019-06-27T07:14:54.722Z,90.77
2019-06-27T07:17:21.741Z,90.70
2019-06-27T07:19:48.722Z,90.03
2019-06-27T07:22:15.701Z,90.10
2019-06-27T07:24:42.668Z,90.15
2019-06-27T07:27:09.674Z,89.25
2019-06-27T07:29:36.643Z,88.55
2019-06-27T07:32:03.650Z,87.52
2019-06-27T07:34:30.657Z,85.69
2019-06-27T07:36:57.654Z,85.22
2019-06-27T07:39:26.371Z,85.05
2019-06-27T07:41:53.346Z,84.34
2019-06-27T07:44:21.557Z,84.06
2019-06-27T07:46:48.631Z,83.78
2019-06-27T07:49:15.633Z,83.65
2019-06-27T07:51:42.612Z,83.52
2019-06-27T07:54:09.595Z,82.62
2019-06-27T07:56:36.568Z,82.86
2019-06-27T07:59:03.639Z,82.43
2019-06-27T08:01:35.654Z,82.53
2019-06-27T08:03:59.522Z,82.67
2019-06-27T08:06:26.512Z,83.26
2019-06-27T08:08:53.493Z,83.48
2019-06-27T08:11:20.470Z,82.67
2019-06-27T08:13:47.463Z,82.80
2019-06-27T08:16:14.490Z,81.98
2019-06-27T08:18:42.786Z,81.90
2019-06-27T08:21:09.788Z,81.81
2019-06-27T08:23:41.629Z,80.92
2019-06-27T08:26:05.774Z,81.35
2019-06-27T08:28:32.774Z,81.52
2019-06-27T08:30:59.760Z,80.08
2019-06-27T08:33:26.779Z,79.75
2019-06-27T08:35:53.801Z,80.54
2019-06-27T08:38:20.790Z,80.23
2019-06-27T08:40:47.779Z,80.09
2019-06-27T08:43:14.923Z,78.97
2019-06-27T08:45:43.010Z,78.76
2019-06-27T08:48:10.019Z,76.46
2019-06-27T08:50:36.971Z,75.55
2019-06-27T08:53:04.251Z,75.31
2019-06-27T08:55:31.526Z,75.21
2019-06-27T08:57:58.496Z,74.91
2019-06-27T09:00:25.504Z,74.68
2019-06-27T09:02:52.467Z,75.70
2019-06-27T09:05:19.581Z,73.79
2019-06-27T09:07:46.603Z,74.43
2019-06-27T09:10:13.698Z,73.12
2019-06-27T09:12:40.817Z,73.39
2019-06-27T09:15:08.331Z,72.62
2019-06-27T09:17:35.423Z,72.37
2019-06-27T09:20:02.353Z,71.21
2019-06-27T09:22:29.538Z,70.79
2019-06-27T09:24:56.536Z,70.11
2019-06-27T09:27:23.539Z,69.31
2019-06-27T09:29:51.937Z,67.30
2019-06-27T09:32:25.327Z,65.28
2019-06-27T09:34:47.908Z,64.42
2019-06-27T09:37:14.948Z,64.87
2019-06-27T09:39:41.940Z,62.77
2019-06-27T09:42:08.991Z,60.66
2019-06-27T09:44:36.334Z,60.10
2019-06-27T09:47:04.555Z,62.17
2019-06-27T09:49:31.532Z,61.81
2019-06-27T09:51:58.527Z,62.49
2019-06-27T09:54:25.546Z,63.15
2019-06-27T09:56:52.552Z,62.72
2019-06-27T09:59:19.517Z,62.24
2019-06-27T10:01:46.529Z,62.42
2019-06-27T10:04:13.547Z,61.29
2019-06-27T10:06:40.698Z,60.22
2019-06-27T10:09:07.737Z,59.69
2019-06-27T10:11:34.750Z,58.97
2019-06-27T10:14:01.719Z,57.48
2019-06-27T10:16:30.902Z,57.54
2019-06-27T10:18:57.888Z,57.59
2019-06-27T10:24:33.354Z,55.70
2019-06-27T10:27:00.457Z,54.91
2019-06-27T10:29:27.443Z,53.89
2019-06-27T10:31:54.425Z,53.70
2019-06-27T10:34:21.411Z,54.65
2019-06-27T10:36:48.396Z,55.24
2019-06-27T10:39:15.450Z,53.58
2019-06-27T10:41:42.523Z,52.88
2019-06-27T10:44:09.517Z,52.18
2019-06-27T10:46:36.462Z,51.99
2019-06-27T10:49:06.238Z,52.29
2019-06-27T10:51:33.452Z,53.10
2019-06-27T10:54:00.409Z,52.67
2019-06-27T10:56:39.598Z,51.66
2019-06-27T10:59:03.731Z,51.40
2019-06-27T11:01:30.729Z,50.94
2019-06-27T11:03:57.707Z,51.64
2019-06-27T11:06:24.690Z,49.80
2019-06-27T11:08:51.795Z,50.00
2019-06-27T11:11:18.751Z,50.54
2019-06-27T11:13:58.266Z,50.45
2019-06-27T11:16:14.776Z,50.43
2019-06-27T11:18:41.755Z,49.15
2019-06-27T11:21:08.766Z,48.81
2019-06-27T11:23:35.737Z,48.02
2019-06-27T11:26:02.718Z,48.40
2019-06-27T11:28:29.688Z,46.10
2019-06-27T11:30:56.679Z,45.57
2019-06-27T11:33:32.683Z,44.33
2019-06-27T11:35:52.587Z,43.15
2019-06-27T11:38:21.604Z,40.90
2019-06-27T11:40:48.685Z,40.95
2019-06-27T11:43:15.660Z,40.40
2019-06-27T11:45:42.854Z,39.60
2019-06-27T11:48:09.823Z,38.49
2019-06-27T11:50:36.893Z,38.27
2019-06-27T11:53:03.924Z,37.19
2019-06-27T11:55:30.883Z,37.38
2019-06-27T11:57:58.007Z,36.48
2019-06-27T12:00:25.012Z,35.95
2019-06-27T12:02:53.361Z,35.33
2019-06-27T12:05:20.347Z,34.80
2019-06-27T12:07:47.521Z,34.29
2019-06-27T12:10:14.996Z,34.67
2019-06-27T12:12:41.975Z,34.81
2019-06-27T12:15:09.375Z,33.99
2019-06-27T12:17:36.553Z,33.14
2019-06-27T12:20:05.171Z,32.45
2019-06-27T12:22:32.178Z,32.40
2019-06-27T12:24:59.151Z,32.40
2019-06-27T12:27:26.165Z,32.68
2019-06-27T12:29:53.182Z,33.06
2019-06-27T12:32:20.182Z,32.42
2019-06-27T12:34:47.440Z,31.76
2019-06-27T12:37:14.456Z,30.88
2019-06-27T12:39:42.324Z,31.15
2019-06-27T12:42:09.337Z,31.34
2019-06-27T12:44:36.348Z,31.04
2019-06-27T12:47:03.427Z,30.99
2019-06-27T12:49:50.066Z,30.20
2019-06-27T12:52:00.456Z,29.38
2019-06-27T12:54:27.427Z,29.71
2019-06-27T12:56:54.463Z,30.03
2019-06-27T12:59:21.458Z,30.57
2019-06-27T13:01:48.676Z,30.79
2019-06-27T13:04:23.376Z,30.83
2019-06-27T13:06:44.623Z,30.23
2019-06-27T13:09:11.656Z,30.19
2019-06-27T13:11:44.684Z,29.66
2019-06-27T13:14:26.869Z,29.84
2019-06-27T13:16:53.895Z,30.34
2019-06-27T13:19:20.904Z,28.27
2019-06-27T13:21:47.906Z,28.73
2019-06-27T13:24:16.482Z,28.72
2019-06-27T13:26:43.458Z,28.64
2019-06-27T13:29:11.589Z,28.75
2019-06-27T13:31:39.726Z,29.10
2019-06-27T13:34:06.844Z,30.55
2019-06-27T13:36:33.866Z,31.27
2019-06-27T13:39:01.124Z,30.05
2019-06-27T13:41:28.176Z,30.93
2019-06-27T13:43:55.205Z,30.75
2019-06-27T13:46:22.174Z,31.79
2019-06-27T13:48:49.174Z,30.49
2019-06-27T13:51:16.231Z,29.77
2019-06-27T13:53:43.229Z,30.65
2019-06-27T13:56:10.244Z,30.41
2019-06-27T13:58:37.254Z,31.01
2019-06-27T14:01:04.758Z,31.04
2019-06-27T14:03:47.834Z,31.88
2019-06-27T14:06:00.670Z,30.59
2019-06-27T14:08:27.739Z,30.31
2019-06-27T14:10:54.723Z,30.76
2019-06-27T14:13:21.754Z,31.47
2019-06-27T14:15:48.845Z,31.67
2019-06-27T14:18:19.041Z,32.13
2019-06-27T14:20:44.844Z,32.08
2019-06-27T14:23:11.842Z,32.14
2019-06-27T14:25:38.848Z,31.79
2019-06-27T14:28:05.854Z,32.77
2019-06-27T14:30:32.845Z,32.71
2019-06-27T14:32:59.931Z,32.32
2019-06-27T14:35:26.927Z,32.45
2019-06-27T14:37:53.966Z,32.94
2019-06-27T14:40:22.441Z,32.31
2019-06-27T14:42:49.597Z,32.06
2019-06-27T14:45:16.746Z,32.76
2019-06-27T14:47:43.782Z,33.01
2019-06-27T14:50:10.874Z,33.08
2019-06-27T14:52:37.890Z,33.44
2019-06-27T14:55:05.638Z,33.44
2019-06-27T14:57:32.654Z,33.04
2019-06-27T14:59:59.799Z,33.04
2019-06-27T15:02:26.802Z,34.09
2019-06-27T15:04:53.835Z,33.12
2019-06-27T15:07:20.789Z,32.98
2019-06-27T15:09:47.904Z,33.76
2019-06-27T15:12:14.918Z,33.24
2019-06-27T15:14:42.845Z,33.27
2019-06-27T15:17:09.840Z,33.27
2019-06-27T15:19:36.878Z,33.28
2019-06-27T15:22:03.875Z,33.25
2019-06-27T15:24:30.874Z,33.46
2019-06-27T15:26:57.852Z,33.68
2019-06-27T15:29:24.845Z,33.48
2019-06-27T15:31:51.853Z,33.48
2019-06-27T15:34:18.836Z,33.44
2019-06-27T15:36:45.841Z,33.64
2019-06-27T15:39:12.946Z,33.52
2019-06-27T15:41:39.911Z,33.32
2019-06-27T15:44:06.897Z,33.91
2019-06-27T15:46:33.951Z,34.95
2019-06-27T15:49:00.941Z,34.29
2019-06-27T15:51:27.976Z,34.73
2019-06-27T15:53:54.969Z,34.54
2019-06-27T15:56:21.942Z,34.54
2019-06-27T15:58:48.958Z,34.65
2019-06-27T16:01:15.929Z,33.34
2019-06-27T16:03:42.941Z,33.79
2019-06-27T16:06:14.519Z,34.61
2019-06-27T16:08:38.938Z,34.22
2019-06-27T16:11:06.129Z,35.06
2019-06-27T16:13:33.250Z,35.14
2019-06-27T16:16:00.242Z,34.31
2019-06-27T16:18:27.242Z,34.87
2019-06-27T16:21:03.508Z,34.25
2019-06-27T16:23:30.735Z,33.95
2019-06-27T16:25:57.904Z,34.80
2019-06-27T16:28:27.167Z,35.35
2019-06-27T16:30:53.816Z,35.35
2019-06-27T16:33:20.797Z,36.03
2019-06-27T16:36:26.422Z,35.74
2019-06-27T16:38:53.601Z,35.64
2019-06-27T16:41:20.605Z,35.64
2019-06-27T16:43:47.590Z,34.94
2019-06-27T16:46:14.604Z,35.45
2019-06-27T16:48:41.570Z,35.45
2019-06-27T16:51:08.581Z,35.24
2019-06-27T16:53:35.605Z,35.24
2019-06-27T16:56:02.673Z,36.19
2019-06-27T16:58:31.450Z,36.77
2019-06-27T17:00:58.472Z,36.39
2019-06-27T17:03:25.572Z,36.60
2019-06-27T17:05:52.776Z,38.04
2019-06-27T17:08:19.729Z,38.76
2019-06-27T17:10:46.748Z,39.75
2019-06-27T17:13:13.845Z,40.72
2019-06-27T17:15:40.993Z,40.55
2019-06-27T17:18:08.005Z,40.32
2019-06-27T17:20:35.044Z,41.08
2019-06-27T17:23:05.298Z,41.17
2019-06-27T17:25:31.009Z,41.58
2019-06-27T17:27:58.053Z,42.10
2019-06-27T17:30:25.057Z,42.95
2019-06-27T17:32:52.112Z,43.51
2019-06-27T17:35:20.200Z,44.10
2019-06-27T17:37:47.321Z,44.36
2019-06-27T17:40:16.435Z,44.59
2019-06-27T17:42:43.409Z,45.20
2019-06-27T17:45:10.513Z,45.54
2019-06-27T17:47:37.509Z,46.06
2019-06-27T17:50:04.840Z,45.57
2019-06-27T17:52:31.837Z,46.40
2019-06-27T17:54:58.803Z,45.96
2019-06-27T17:57:25.794Z,46.48
2019-06-27T17:59:52.814Z,46.50
2019-06-27T18:02:19.863Z,47.18
2019-06-27T18:04:59.214Z,47.87
2019-06-27T18:07:26.241Z,47.89
2019-06-27T18:09:53.376Z,48.81
2019-06-27T18:12:20.388Z,49.40
2019-06-27T18:14:47.396Z,49.84
2019-06-27T18:17:14.405Z,50.27
2019-06-27T18:19:41.578Z,51.42
2019-06-27T18:22:08.685Z,51.91
2019-06-27T18:24:35.708Z,52.23
2019-06-27T18:27:02.698Z,53.22
2019-06-27T18:29:29.826Z,53.97
2019-06-27T18:31:56.821Z,54.82
2019-06-27T18:34:23.820Z,55.43
2019-06-27T18:36:50.985Z,56.52
2019-06-27T18:39:18.024Z,57.20
2019-06-27T18:41:47.096Z,57.82
2019-06-27T18:44:14.242Z,58.65
2019-06-27T18:46:41.274Z,59.16
2019-06-27T18:49:08.329Z,59.25
2019-06-27T18:51:35.316Z,59.85
2019-06-27T18:54:02.287Z,60.50
2019-06-27T18:56:29.288Z,61.31
2019-06-27T18:58:56.353Z,61.84
2019-06-27T19:01:23.384Z,62.21
2019-06-27T19:03:50.487Z,62.47
2019-06-27T19:06:17.611Z,62.97
2019-06-27T19:08:44.659Z,63.64
2019-06-27T19:11:11.664Z,63.79
2019-06-27T19:13:38.681Z,64.27
2019-06-27T19:16:05.698Z,64.26
2019-06-27T19:18:48.858Z,64.81
2019-06-27T19:21:21.766Z,65.27
2019-06-27T19:23:58.168Z,65.74
2019-06-27T19:26:26.687Z,66.08
2019-06-27T19:28:53.823Z,66.47
2019-06-27T19:31:22.762Z,66.74
2019-06-27T19:33:49.822Z,66.76
2019-06-27T19:36:16.812Z,66.98
2019-06-27T19:38:43.810Z,67.53
2019-06-27T19:41:10.805Z,68.03
2019-06-27T19:43:38.005Z,68.21
2019-06-27T19:46:06.464Z,68.32
2019-06-27T19:48:33.544Z,68.56
2019-06-27T19:51:00.672Z,68.86
2019-06-27T19:53:27.716Z,69.24
2019-06-27T19:55:56.689Z,69.49
2019-06-27T19:58:23.726Z,69.33
2019-06-27T20:00:50.727Z,69.29
2019-06-27T20:03:19.004Z,69.38
2019-06-27T20:05:46.065Z,69.81
2019-06-27T20:08:19.455Z,70.16
2019-06-27T20:10:42.176Z,70.49
2019-06-27T20:13:09.204Z,70.71
2019-06-27T20:15:36.268Z,71.13
2019-06-27T20:18:04.292Z,71.35
2019-06-27T20:20:31.265Z,71.63
2019-06-27T20:22:58.243Z,71.87
2019-06-27T20:25:25.218Z,71.81
2019-06-27T20:27:52.309Z,72.33
2019-06-27T20:30:21.288Z,72.61
2019-06-27T20:32:48.461Z,72.87
2019-06-27T20:35:15.558Z,73.13
2019-06-27T20:37:42.860Z,73.32
2019-06-27T20:40:10.950Z,73.46
2019-06-27T20:42:39.671Z,73.92
2019-06-27T20:45:07.361Z,74.34
2019-06-27T20:47:34.382Z,74.57
2019-06-27T20:50:02.881Z,74.96
2019-06-27T20:52:30.144Z,75.33
2019-06-27T20:54:57.197Z,75.63
2019-06-27T20:57:24.387Z,75.86
2019-06-27T20:59:51.433Z,76.92
2019-06-27T21:02:18.532Z,78.32
2019-06-27T21:04:45.655Z,79.03
2019-06-27T21:07:12.628Z,79.27
2019-06-27T21:09:39.660Z,79.55
2019-06-27T21:12:06.728Z,79.60
2019-06-27T21:14:35.027Z,79.55
2019-06-27T21:17:02.072Z,80.03
2019-06-27T21:19:29.121Z,80.21
2019-06-27T21:21:58.813Z,80.54
2019-06-27T21:24:25.234Z,80.90
2019-06-27T21:26:52.244Z,81.30
2019-06-27T21:29:19.315Z,81.55
2019-06-27T21:31:46.429Z,81.95
2019-06-27T21:34:13.417Z,82.42
2019-06-27T21:36:40.517Z,83.00
2019-06-27T21:39:08.241Z,83.44
2019-06-27T21:41:35.456Z,83.67
2019-06-27T21:44:02.590Z,84.28
2019-06-27T21:46:29.609Z,84.68
2019-06-27T21:48:56.621Z,85.12
2019-06-27T21:51:23.564Z,85.39
2019-06-27T21:53:50.573Z,85.58
2019-06-27T21:56:18.605Z,85.88
2019-06-27T21:58:45.609Z,86.32
2019-06-27T22:01:12.829Z,86.56
2019-06-27T22:03:39.840Z,86.69
2019-06-27T22:06:06.871Z,86.75
2019-06-27T22:08:33.856Z,86.89
2019-06-27T22:11:00.867Z,87.00
2019-06-27T22:13:31.137Z,87.18
2019-06-27T22:15:58.128Z,87.52
2019-06-27T22:18:25.269Z,87.38
2019-06-27T22:20:52.294Z,87.22
2019-06-27T22:23:20.156Z,87.25
2019-06-27T22:25:47.282Z,87.55
2019-06-27T22:28:14.264Z,87.53
2019-06-27T22:30:41.263Z,87.63
2019-06-27T22:33:08.288Z,87.62
2019-06-27T22:35:35.333Z,87.66
2019-06-27T22:38:20.879Z,87.79
2019-06-27T22:41:06.362Z,87.99
2019-06-27T22:43:51.336Z,87.73
2019-06-27T22:46:37.629Z,87.75
2019-06-27T22:49:06.031Z,87.84
2019-06-27T22:51:51.696Z,87.78
2019-06-27T22:54:20.312Z,87.90
2019-06-27T22:56:47.325Z,87.88
2019-06-27T22:59:14.363Z,88.03
2019-06-27T23:01:41.349Z,88.20
2019-06-27T23:04:08.363Z,88.22
2019-06-27T23:06:36.927Z,88.40
2019-06-27T23:09:04.816Z,88.54
2019-06-27T23:11:31.835Z,88.65
2019-06-27T23:13:59.001Z,89.12
2019-06-27T23:16:26.431Z,89.12
2019-06-27T23:18:53.450Z,89.59
2019-06-27T23:21:20.540Z,89.74
2019-06-27T23:23:47.549Z,89.98
2019-06-27T23:26:14.540Z,90.22
2019-06-27T23:28:41.562Z,90.35
2019-06-27T23:31:08.578Z,90.49
2019-06-27T23:33:35.697Z,90.77
2019-06-27T23:36:03.860Z,91.28
2019-06-27T23:38:30.845Z,91.68
2019-06-27T23:40:58.025Z,92.11
2019-06-27T23:43:25.041Z,92.21
2019-06-27T23:45:51.993Z,92.44
2019-06-27T23:48:20.195Z,92.58
2019-06-27T23:50:47.351Z,92.57
2019-06-27T23:53:14.370Z,92.82
2019-06-27T23:55:41.364Z,92.78
2019-06-27T23:58:08.505Z,92.64
